Mc Andrews, Kentucky
Current Conditions -  °F | °C
As of 4:15 AM on Sunday 26 Oct 2014 (Local Time) from KPBX Reporting Station
Clear Clear  
Wind Chill: 58°   Ceiling: Unl
Heat Index: 58°   Visibility: 10mi
Dew Point: 54°   Wind: 7mph
Humidity: 86%   Direction: 260°W
Pressure: 29.95"   Gusts: NA
Location:  37.5713°N, 82.2677°W
Report Text: KPBX 260815Z AUTO 26006KT 10SM CLR 14/12 A2995 RMK AO2 T01440121
Loading
Personal Weather Stations






























Interactive Weather Map
Tropical Storm Tracking
New forecast layout! Learn more

10-Day Weather Forecast

Advertisements
Track Severe Weather on mobile